sensor_id;sensor_type;location;lat;lon;timestamp;pressure;altitude;pressure_sealevel;temperature;humidity
78407;BME280;67692;51.074;-1.790;2023-07-13T00:00:30;101027.09;;;15.70;78.79
78407;BME280;67692;51.074;-1.790;2023-07-13T00:02:57;101015.28;;;15.66;78.66
78407;BME280;67692;51.074;-1.790;2023-07-13T00:05:24;101020.38;;;15.68;78.07
78407;BME280;67692;51.074;-1.790;2023-07-13T00:07:52;101011.84;;;15.66;77.93
78407;BME280;67692;51.074;-1.790;2023-07-13T00:10:20;101025.41;;;15.60;78.74
78407;BME280;67692;51.074;-1.790;2023-07-13T00:12:46;101023.63;;;15.60;78.91
78407;BME280;67692;51.074;-1.790;2023-07-13T00:15:18;101021.09;;;15.59;78.53
78407;BME280;67692;51.074;-1.790;2023-07-13T00:17:48;101015.06;;;15.58;79.37
78407;BME280;67692;51.074;-1.790;2023-07-13T00:20:15;101019.16;;;15.51;78.53
78407;BME280;67692;51.074;-1.790;2023-07-13T00:22:41;101010.75;;;15.47;79.44
78407;BME280;67692;51.074;-1.790;2023-07-13T00:25:09;101015.03;;;15.48;78.80
78407;BME280;67692;51.074;-1.790;2023-07-13T00:27:36;101020.59;;;15.34;78.02
78407;BME280;67692;51.074;-1.790;2023-07-13T00:30:04;101016.75;;;15.38;78.41
78407;BME280;67692;51.074;-1.790;2023-07-13T00:32:32;101018.53;;;15.38;78.40
78407;BME280;67692;51.074;-1.790;2023-07-13T00:34:59;101022.78;;;15.39;79.46
78407;BME280;67692;51.074;-1.790;2023-07-13T00:37:26;101022.97;;;15.47;77.33
78407;BME280;67692;51.074;-1.790;2023-07-13T00:39:52;101019.16;;;15.51;77.38
78407;BME280;67692;51.074;-1.790;2023-07-13T00:42:19;101024.22;;;15.64;77.15
78407;BME280;67692;51.074;-1.790;2023-07-13T00:45:03;101024.06;;;15.65;78.41
78407;BME280;67692;51.074;-1.790;2023-07-13T00:47:32;101017.19;;;15.64;77.74
78407;BME280;67692;51.074;-1.790;2023-07-13T00:49:59;101010.09;;;15.55;77.51
78407;BME280;67692;51.074;-1.790;2023-07-13T00:52:26;101020.53;;;15.55;79.14
78407;BME280;67692;51.074;-1.790;2023-07-13T00:54:54;101015.59;;;15.52;78.74
78407;BME280;67692;51.074;-1.790;2023-07-13T00:57:21;101019.72;;;15.55;79.34
78407;BME280;67692;51.074;-1.790;2023-07-13T00:59:51;101010.38;;;15.52;78.80
78407;BME280;67692;51.074;-1.790;2023-07-13T01:02:19;101020.00;;;15.52;78.86
78407;BME280;67692;51.074;-1.790;2023-07-13T01:04:48;101005.41;;;15.49;78.83
78407;BME280;67692;51.074;-1.790;2023-07-13T01:07:15;101008.25;;;15.46;78.60
78407;BME280;67692;51.074;-1.790;2023-07-13T01:09:42;101010.03;;;15.45;78.72
78407;BME280;67692;51.074;-1.790;2023-07-13T01:12:10;101016.50;;;15.41;77.73
78407;BME280;67692;51.074;-1.790;2023-07-13T01:14:37;101016.34;;;15.43;78.79
78407;BME280;67692;51.074;-1.790;2023-07-13T01:17:04;101004.53;;;15.39;78.31
78407;BME280;67692;51.074;-1.790;2023-07-13T01:19:35;101016.69;;;15.29;77.43
78407;BME280;67692;51.074;-1.790;2023-07-13T01:22:05;101014.06;;;15.29;78.61
78407;BME280;67692;51.074;-1.790;2023-07-13T01:24:34;101007.97;;;15.18;78.23
78407;BME280;67692;51.074;-1.790;2023-07-13T01:27:01;101015.28;;;15.25;78.27
78407;BME280;67692;51.074;-1.790;2023-07-13T01:29:28;101011.28;;;15.21;78.98
78407;BME280;67692;51.074;-1.790;2023-07-13T01:31:55;101011.66;;;15.16;78.86
78407;BME280;67692;51.074;-1.790;2023-07-13T01:34:22;101011.66;;;15.16;78.51
78407;BME280;67692;51.074;-1.790;2023-07-13T01:36:48;101009.31;;;15.13;79.15
78407;BME280;67692;51.074;-1.790;2023-07-13T01:39:16;101012.03;;;15.11;78.56
78407;BME280;67692;51.074;-1.790;2023-07-13T01:41:43;101008.47;;;15.12;78.63
78407;BME280;67692;51.074;-1.790;2023-07-13T01:44:09;101004.91;;;15.13;78.94
78407;BME280;67692;51.074;-1.790;2023-07-13T01:46:36;101007.91;;;15.09;79.27
78407;BME280;67692;51.074;-1.790;2023-07-13T01:49:03;101010.06;;;15.04;78.93
78407;BME280;67692;51.074;-1.790;2023-07-13T01:51:29;100995.63;;;15.00;78.98
78407;BME280;67692;51.074;-1.790;2023-07-13T01:53:56;101007.34;;;15.05;79.35
78407;BME280;67692;51.074;-1.790;2023-07-13T01:56:24;101005.09;;;15.01;78.81
78407;BME280;67692;51.074;-1.790;2023-07-13T01:58:51;101009.97;;;15.05;79.26
78407;BME280;67692;51.074;-1.790;2023-07-13T02:01:18;101012.78;;;15.02;79.10
78407;BME280;67692;51.074;-1.790;2023-07-13T02:03:45;101008.41;;;15.03;78.77
78407;BME280;67692;51.074;-1.790;2023-07-13T02:06:12;101021.00;;;14.98;79.12
78407;BME280;67692;51.074;-1.790;2023-07-13T02:08:40;101010.44;;;14.99;79.33
78407;BME280;67692;51.074;-1.790;2023-07-13T02:11:07;101002.88;;;14.96;78.82
78407;BME280;67692;51.074;-1.790;2023-07-13T02:13:35;101014.06;;;14.87;78.75
78407;BME280;67692;51.074;-1.790;2023-07-13T02:16:02;101012.41;;;14.86;79.46
78407;BME280;67692;51.074;-1.790;2023-07-13T02:18:29;101012.66;;;14.83;79.43
78407;BME280;67692;51.074;-1.790;2023-07-13T02:20:56;100999.75;;;14.81;79.44
78407;BME280;67692;51.074;-1.790;2023-07-13T02:23:22;101005.44;;;14.75;78.75
78407;BME280;67692;51.074;-1.790;2023-07-13T02:25:49;100997.28;;;14.80;79.68
78407;BME280;67692;51.074;-1.790;2023-07-13T02:28:15;100998.84;;;14.71;79.03
78407;BME280;67692;51.074;-1.790;2023-07-13T02:30:43;101000.16;;;14.66;79.86
78407;BME280;67692;51.074;-1.790;2023-07-13T02:33:10;100998.66;;;14.63;79.50
78407;BME280;67692;51.074;-1.790;2023-07-13T02:35:37;100997.56;;;14.66;79.78
78407;BME280;67692;51.074;-1.790;2023-07-13T02:38:03;100993.31;;;14.65;78.80
78407;BME280;67692;51.074;-1.790;2023-07-13T02:40:30;101001.94;;;14.65;79.12
78407;BME280;67692;51.074;-1.790;2023-07-13T02:42:58;100998.41;;;14.66;79.62
78407;BME280;67692;51.074;-1.790;2023-07-13T02:45:25;100995.78;;;14.66;78.99
78407;BME280;67692;51.074;-1.790;2023-07-13T02:47:54;100995.91;;;14.65;79.59
78407;BME280;67692;51.074;-1.790;2023-07-13T02:50:21;100998.41;;;14.66;79.20
78407;BME280;67692;51.074;-1.790;2023-07-13T02:52:47;100999.69;;;14.61;78.99
78407;BME280;67692;51.074;-1.790;2023-07-13T02:55:14;100994.25;;;14.64;79.32
78407;BME280;67692;51.074;-1.790;2023-07-13T02:57:40;100991.88;;;14.61;79.87
78407;BME280;67692;51.074;-1.790;2023-07-13T03:00:08;101004.00;;;14.62;79.59
78407;BME280;67692;51.074;-1.790;2023-07-13T03:02:35;101004.22;;;14.58;79.87
78407;BME280;67692;51.074;-1.790;2023-07-13T03:05:04;101003.63;;;14.55;79.44
78407;BME280;67692;51.074;-1.790;2023-07-13T03:07:31;101005.28;;;14.56;79.30
78407;BME280;67692;51.074;-1.790;2023-07-13T03:09:58;101010.38;;;14.57;79.64
78407;BME280;67692;51.074;-1.790;2023-07-13T03:12:25;101009.22;;;14.50;79.94
78407;BME280;67692;51.074;-1.790;2023-07-13T03:14:52;101002.09;;;14.52;80.28
78407;BME280;67692;51.074;-1.790;2023-07-13T03:17:18;100992.50;;;14.53;78.98
78407;BME280;67692;51.074;-1.790;2023-07-13T03:19:45;101004.97;;;14.49;80.02
78407;BME280;67692;51.074;-1.790;2023-07-13T03:22:16;100990.50;;;14.45;80.10
78407;BME280;67692;51.074;-1.790;2023-07-13T03:24:42;101000.72;;;14.48;79.53
78407;BME280;67692;51.074;-1.790;2023-07-13T03:27:09;100999.75;;;14.49;79.77
78407;BME280;67692;51.074;-1.790;2023-07-13T03:29:36;100993.34;;;14.53;80.70
78407;BME280;67692;51.074;-1.790;2023-07-13T03:32:03;100988.97;;;14.54;79.34
78407;BME280;67692;51.074;-1.790;2023-07-13T03:34:30;100996.53;;;14.57;79.72
78407;BME280;67692;51.074;-1.790;2023-07-13T03:36:58;100995.44;;;14.59;80.10
78407;BME280;67692;51.074;-1.790;2023-07-13T03:39:25;100996.75;;;14.65;80.54
78407;BME280;67692;51.074;-1.790;2023-07-13T03:41:53;100996.25;;;14.60;80.01
78407;BME280;67692;51.074;-1.790;2023-07-13T03:44:20;100996.78;;;14.54;79.80
78407;BME280;67692;51.074;-1.790;2023-07-13T03:46:46;100997.81;;;14.63;80.63
78407;BME280;67692;51.074;-1.790;2023-07-13T03:49:13;101004.91;;;14.61;80.00
78407;BME280;67692;51.074;-1.790;2023-07-13T03:51:40;100997.94;;;14.61;79.98
78407;BME280;67692;51.074;-1.790;2023-07-13T03:54:06;101008.72;;;14.56;79.97
78407;BME280;67692;51.074;-1.790;2023-07-13T03:56:34;101004.22;;;14.58;80.28
78407;BME280;67692;51.074;-1.790;2023-07-13T03:59:01;101007.78;;;14.57;79.57
78407;BME280;67692;51.074;-1.790;2023-07-13T04:01:28;101010.97;;;14.61;79.98
78407;BME280;67692;51.074;-1.790;2023-07-13T04:03:54;101010.75;;;14.53;79.52
78407;BME280;67692;51.074;-1.790;2023-07-13T04:06:27;101004.97;;;14.49;79.87
78407;BME280;67692;51.074;-1.790;2023-07-13T04:08:56;101006.88;;;14.47;80.05
78407;BME280;67692;51.074;-1.790;2023-07-13T04:11:25;101005.41;;;14.43;80.00
78407;BME280;67692;51.074;-1.790;2023-07-13T04:13:54;101006.50;;;14.41;80.07
78407;BME280;67692;51.074;-1.790;2023-07-13T04:16:21;101004.50;;;14.33;79.77
78407;BME280;67692;51.074;-1.790;2023-07-13T04:18:48;101004.50;;;14.33;79.87
78407;BME280;67692;51.074;-1.790;2023-07-13T04:21:15;101005.47;;;14.32;79.68
78407;BME280;67692;51.074;-1.790;2023-07-13T04:23:42;101009.72;;;14.33;80.12
78407;BME280;67692;51.074;-1.790;2023-07-13T04:26:09;101008.28;;;14.29;80.34
78407;BME280;67692;51.074;-1.790;2023-07-13T04:28:36;101023.09;;;14.28;80.04
78407;BME280;67692;51.074;-1.790;2023-07-13T04:31:04;101023.59;;;14.22;80.08
78407;BME280;67692;51.074;-1.790;2023-07-13T04:33:30;101024.16;;;14.26;80.22
78407;BME280;67692;51.074;-1.790;2023-07-13T04:35:57;101028.91;;;14.32;80.34
78407;BME280;67692;51.074;-1.790;2023-07-13T04:38:26;101027.47;;;14.28;80.12
78407;BME280;67692;51.074;-1.790;2023-07-13T04:40:54;101021.09;;;14.32;80.37
78407;BME280;67692;51.074;-1.790;2023-07-13T04:43:21;101029.50;;;14.36;80.28
78407;BME280;67692;51.074;-1.790;2023-07-13T04:45:48;101036.81;;;14.42;80.67
78407;BME280;67692;51.074;-1.790;2023-07-13T04:48:16;101038.72;;;14.40;80.63
78407;BME280;67692;51.074;-1.790;2023-07-13T04:50:43;101039.41;;;14.42;80.32
78407;BME280;67692;51.074;-1.790;2023-07-13T04:53:09;101026.25;;;14.43;80.12
78407;BME280;67692;51.074;-1.790;2023-07-13T04:55:37;101039.28;;;14.54;80.15
78407;BME280;67692;51.074;-1.790;2023-07-13T04:58:04;101036.00;;;14.52;79.31
78407;BME280;67692;51.074;-1.790;2023-07-13T05:00:31;101040.13;;;14.55;80.58
78407;BME280;67692;51.074;-1.790;2023-07-13T05:02:58;101041.31;;;14.62;79.94
78407;BME280;67692;51.074;-1.790;2023-07-13T05:05:26;101039.28;;;14.66;79.82
78407;BME280;67692;51.074;-1.790;2023-07-13T05:07:53;101048.50;;;14.70;79.99
78407;BME280;67692;51.074;-1.790;2023-07-13T05:10:20;101043.97;;;14.72;79.50
78407;BME280;67692;51.074;-1.790;2023-07-13T05:12:47;101049.75;;;14.75;80.30
78407;BME280;67692;51.074;-1.790;2023-07-13T05:15:14;101051.06;;;14.81;79.64
78407;BME280;67692;51.074;-1.790;2023-07-13T05:17:41;101039.00;;;14.80;79.32
78407;BME280;67692;51.074;-1.790;2023-07-13T05:20:09;101046.03;;;14.89;80.08
78407;BME280;67692;51.074;-1.790;2023-07-13T05:22:37;101050.06;;;14.93;80.17
78407;BME280;67692;51.074;-1.790;2023-07-13T05:25:05;101049.56;;;14.99;79.44
78407;BME280;67692;51.074;-1.790;2023-07-13T05:27:32;101044.91;;;15.03;79.54
78407;BME280;67692;51.074;-1.790;2023-07-13T05:29:59;101043.03;;;15.05;78.16
78407;BME280;67692;51.074;-1.790;2023-07-13T05:32:26;101049.09;;;15.05;78.66
78407;BME280;67692;51.074;-1.790;2023-07-13T05:34:53;101045.53;;;15.06;78.64
78407;BME280;67692;51.074;-1.790;2023-07-13T05:37:20;101047.16;;;15.07;79.33
78407;BME280;67692;51.074;-1.790;2023-07-13T05:39:48;101052.31;;;15.18;78.79
78407;BME280;67692;51.074;-1.790;2023-07-13T05:42:15;101040.00;;;15.21;79.14
78407;BME280;67692;51.074;-1.790;2023-07-13T05:44:42;101043.28;;;15.23;79.39
78407;BME280;67692;51.074;-1.790;2023-07-13T05:47:08;101048.81;;;15.29;79.50
78407;BME280;67692;51.074;-1.790;2023-07-13T05:49:35;101054.72;;;15.31;78.56
78407;BME280;67692;51.074;-1.790;2023-07-13T05:52:02;101053.22;;;15.29;78.58
78407;BME280;67692;51.074;-1.790;2023-07-13T05:54:28;101064.34;;;15.31;79.32
78407;BME280;67692;51.074;-1.790;2023-07-13T05:56:56;101063.03;;;15.36;79.42
78407;BME280;67692;51.074;-1.790;2023-07-13T05:59:23;101064.56;;;15.39;78.85
78407;BME280;67692;51.074;-1.790;2023-07-13T06:01:50;101068.81;;;15.40;80.11
78407;BME280;67692;51.074;-1.790;2023-07-13T06:04:18;101074.84;;;15.40;79.61
78407;BME280;67692;51.074;-1.790;2023-07-13T06:06:44;101070.22;;;15.44;79.50
78407;BME280;67692;51.074;-1.790;2023-07-13T06:09:11;101080.50;;;15.45;79.51
78407;BME280;67692;51.074;-1.790;2023-07-13T06:11:38;101078.25;;;15.52;80.10
78407;BME280;67692;51.074;-1.790;2023-07-13T06:14:06;101081.66;;;15.64;79.69
78407;BME280;67692;51.074;-1.790;2023-07-13T06:16:33;101087.44;;;15.67;79.22
78407;BME280;67692;51.074;-1.790;2023-07-13T06:18:59;101086.63;;;15.76;79.61
78407;BME280;67692;51.074;-1.790;2023-07-13T06:21:26;101089.44;;;15.85;79.52
78407;BME280;67692;51.074;-1.790;2023-07-13T06:23:53;101096.03;;;15.89;79.26
78407;BME280;67692;51.074;-1.790;2023-07-13T06:26:21;101102.16;;;15.99;78.98
78407;BME280;67692;51.074;-1.790;2023-07-13T06:28:47;101096.41;;;16.05;78.28
78407;BME280;67692;51.074;-1.790;2023-07-13T06:31:16;101104.16;;;16.16;78.16
78407;BME280;67692;51.074;-1.790;2023-07-13T06:33:43;101110.66;;;16.22;78.66
78407;BME280;67692;51.074;-1.790;2023-07-13T06:36:11;101114.50;;;16.27;78.33
78407;BME280;67692;51.074;-1.790;2023-07-13T06:38:38;101113.56;;;16.28;78.49
78407;BME280;67692;51.074;-1.790;2023-07-13T06:41:05;101107.78;;;16.34;78.97
78407;BME280;67692;51.074;-1.790;2023-07-13T06:43:33;101122.41;;;16.37;78.50
78407;BME280;67692;51.074;-1.790;2023-07-13T06:46:00;101103.41;;;16.35;79.26
78407;BME280;67692;51.074;-1.790;2023-07-13T06:48:28;101116.75;;;16.42;78.57
78407;BME280;67692;51.074;-1.790;2023-07-13T06:50:55;101115.53;;;16.46;78.48
78407;BME280;67692;51.074;-1.790;2023-07-13T06:53:22;101124.34;;;16.45;78.47
78407;BME280;67692;51.074;-1.790;2023-07-13T06:55:48;101120.47;;;16.49;79.07
78407;BME280;67692;51.074;-1.790;2023-07-13T06:58:17;101131.22;;;16.46;77.66
78407;BME280;67692;51.074;-1.790;2023-07-13T07:00:43;101133.44;;;16.50;78.59
78407;BME280;67692;51.074;-1.790;2023-07-13T07:03:10;101135.78;;;16.53;78.09
78407;BME280;67692;51.074;-1.790;2023-07-13T07:05:38;101133.59;;;16.58;78.43
78407;BME280;67692;51.074;-1.790;2023-07-13T07:08:05;101142.13;;;16.60;78.10
78407;BME280;67692;51.074;-1.790;2023-07-13T07:10:32;101137.72;;;16.61;77.71
78407;BME280;67692;51.074;-1.790;2023-07-13T07:12:59;101146.75;;;16.68;78.05
78407;BME280;67692;51.074;-1.790;2023-07-13T07:15:26;101142.06;;;16.72;77.88
78407;BME280;67692;51.074;-1.790;2023-07-13T07:17:53;101144.84;;;16.80;77.78
78407;BME280;67692;51.074;-1.790;2023-07-13T07:20:20;101146.75;;;16.78;77.99
78407;BME280;67692;51.074;-1.790;2023-07-13T07:22:48;101157.78;;;16.81;78.18
78407;BME280;67692;51.074;-1.790;2023-07-13T07:25:15;101155.44;;;16.88;78.12
78407;BME280;67692;51.074;-1.790;2023-07-13T07:27:41;101156.53;;;16.85;78.01
78407;BME280;67692;51.074;-1.790;2023-07-13T07:30:09;101158.75;;;16.90;78.33
78407;BME280;67692;51.074;-1.790;2023-07-13T07:32:36;101160.16;;;16.94;78.02
78407;BME280;67692;51.074;-1.790;2023-07-13T07:35:04;101151.72;;;16.90;78.46
78407;BME280;67692;51.074;-1.790;2023-07-13T07:37:30;101158.59;;;16.91;77.93
78407;BME280;67692;51.074;-1.790;2023-07-13T07:39:58;101164.56;;;16.93;77.63
78407;BME280;67692;51.074;-1.790;2023-07-13T07:42:25;101164.28;;;16.97;77.77
78407;BME280;67692;51.074;-1.790;2023-07-13T07:44:52;101158.63;;;17.01;78.22
78407;BME280;67692;51.074;-1.790;2023-07-13T07:47:18;101155.19;;;17.01;77.92
78407;BME280;67692;51.074;-1.790;2023-07-13T07:49:45;101160.59;;;17.09;78.45
78407;BME280;67692;51.074;-1.790;2023-07-13T07:52:12;101167.19;;;17.13;78.71
78407;BME280;67692;51.074;-1.790;2023-07-13T07:54:38;101167.19;;;17.13;77.76
78407;BME280;67692;51.074;-1.790;2023-07-13T07:57:06;101162.38;;;17.18;77.68
78407;BME280;67692;51.074;-1.790;2023-07-13T07:59:36;101169.94;;;17.21;78.07
78407;BME280;67692;51.074;-1.790;2023-07-13T08:02:03;101165.28;;;17.24;78.21
78407;BME280;67692;51.074;-1.790;2023-07-13T08:04:30;101163.06;;;17.30;77.59
78407;BME280;67692;51.074;-1.790;2023-07-13T08:06:56;101153.97;;;17.34;77.38
78407;BME280;67692;51.074;-1.790;2023-07-13T08:09:23;101160.31;;;17.41;76.69
78407;BME280;67692;51.074;-1.790;2023-07-13T08:11:50;101161.41;;;17.48;76.95
78407;BME280;67692;51.074;-1.790;2023-07-13T08:14:19;101160.31;;;17.50;76.78
78407;BME280;67692;51.074;-1.790;2023-07-13T08:16:45;101154.50;;;17.57;76.66
78407;BME280;67692;51.074;-1.790;2023-07-13T08:19:12;101152.16;;;17.63;76.42
78407;BME280;67692;51.074;-1.790;2023-07-13T08:21:39;101154.66;;;17.74;76.04
78407;BME280;67692;51.074;-1.790;2023-07-13T08:24:06;101158.78;;;17.77;76.63
78407;BME280;67692;51.074;-1.790;2023-07-13T08:26:32;101159.72;;;17.86;75.57
78407;BME280;67692;51.074;-1.790;2023-07-13T08:28:59;101163.44;;;17.93;75.70
78407;BME280;67692;51.074;-1.790;2023-07-13T08:31:27;101157.78;;;17.97;75.28
78407;BME280;67692;51.074;-1.790;2023-07-13T08:33:54;101154.44;;;18.05;75.19
78407;BME280;67692;51.074;-1.790;2023-07-13T08:36:20;101148.19;;;18.16;75.17
78407;BME280;67692;51.074;-1.790;2023-07-13T08:38:47;101157.00;;;18.24;75.11
78407;BME280;67692;51.074;-1.790;2023-07-13T08:41:16;101154.63;;;18.31;72.40
78407;BME280;67692;51.074;-1.790;2023-07-13T08:43:46;101152.38;;;18.36;72.58
78407;BME280;67692;51.074;-1.790;2023-07-13T08:46:17;101155.66;;;18.48;73.24
78407;BME280;67692;51.074;-1.790;2023-07-13T08:48:50;101157.84;;;18.52;73.26
78407;BME280;67692;51.074;-1.790;2023-07-13T08:51:26;101160.28;;;18.63;72.46
78407;BME280;67692;51.074;-1.790;2023-07-13T08:53:57;101154.31;;;18.71;71.88
78407;BME280;67692;51.074;-1.790;2023-07-13T08:56:28;101154.78;;;18.66;71.54
78407;BME280;67692;51.074;-1.790;2023-07-13T08:58:57;101166.31;;;18.73;72.07
78407;BME280;67692;51.074;-1.790;2023-07-13T09:01:30;101160.47;;;18.80;71.43
78407;BME280;67692;51.074;-1.790;2023-07-13T09:04:05;101158.81;;;18.79;70.52
78407;BME280;67692;51.074;-1.790;2023-07-13T09:06:43;101165.72;;;18.80;69.47
78407;BME280;67692;51.074;-1.790;2023-07-13T09:09:20;101153.06;;;18.75;69.17
78407;BME280;67692;51.074;-1.790;2023-07-13T09:11:55;101160.56;;;18.70;69.85
78407;BME280;67692;51.074;-1.790;2023-07-13T09:14:41;101165.13;;;18.68;69.84
78407;BME280;67692;51.074;-1.790;2023-07-13T09:17:14;101166.91;;;18.67;70.67
78407;BME280;67692;51.074;-1.790;2023-07-13T09:19:47;101160.84;;;18.67;69.60
78407;BME280;67692;51.074;-1.790;2023-07-13T09:22:18;101163.59;;;18.65;70.05
78407;BME280;67692;51.074;-1.790;2023-07-13T09:25:04;101157.19;;;18.78;69.98
78407;BME280;67692;51.074;-1.790;2023-07-13T09:27:36;101159.91;;;18.86;69.25
78407;BME280;67692;51.074;-1.790;2023-07-13T09:30:21;101154.72;;;18.94;68.63
78407;BME280;67692;51.074;-1.790;2023-07-13T09:32:52;101146.13;;;19.01;68.96
78407;BME280;67692;51.074;-1.790;2023-07-13T09:35:25;101157.53;;;19.10;68.41
78407;BME280;67692;51.074;-1.790;2023-07-13T09:37:57;101157.81;;;19.07;68.57
78407;BME280;67692;51.074;-1.790;2023-07-13T09:40:30;101157.28;;;19.03;68.39
78407;BME280;67692;51.074;-1.790;2023-07-13T09:42:59;101165.84;;;19.06;69.07
78407;BME280;67692;51.074;-1.790;2023-07-13T09:45:28;101159.03;;;19.13;68.90
78407;BME280;67692;51.074;-1.790;2023-07-13T09:48:05;101160.59;;;19.23;69.28
78407;BME280;67692;51.074;-1.790;2023-07-13T09:50:34;101154.13;;;19.36;67.66
78407;BME280;67692;51.074;-1.790;2023-07-13T09:53:02;101156.75;;;19.36;67.42
78407;BME280;67692;51.074;-1.790;2023-07-13T09:55:31;101160.34;;;19.35;67.64
78407;BME280;67692;51.074;-1.790;2023-07-13T09:58:03;101156.25;;;19.32;67.70
78407;BME280;67692;51.074;-1.790;2023-07-13T10:00:31;101162.56;;;19.39;66.49
78407;BME280;67692;51.074;-1.790;2023-07-13T10:03:03;101168.31;;;19.43;67.14
78407;BME280;67692;51.074;-1.790;2023-07-13T10:05:40;101172.75;;;19.42;66.53
78407;BME280;67692;51.074;-1.790;2023-07-13T10:08:17;101167.56;;;19.32;66.52
78407;BME280;67692;51.074;-1.790;2023-07-13T10:10:44;101157.38;;;19.29;67.48
78407;BME280;67692;51.074;-1.790;2023-07-13T10:13:25;101163.13;;;19.33;67.09
78407;BME280;67692;51.074;-1.790;2023-07-13T10:15:54;101162.56;;;19.39;66.85
78407;BME280;67692;51.074;-1.790;2023-07-13T10:18:22;101165.22;;;19.47;66.54
78407;BME280;67692;51.074;-1.790;2023-07-13T10:20:54;101156.75;;;19.53;66.39
78407;BME280;67692;51.074;-1.790;2023-07-13T10:23:27;101165.69;;;19.60;65.13
78407;BME280;67692;51.074;-1.790;2023-07-13T10:25:59;101159.63;;;19.60;66.87
78407;BME280;67692;51.074;-1.790;2023-07-13T10:28:30;101159.25;;;19.55;65.34
78407;BME280;67692;51.074;-1.790;2023-07-13T10:30:59;101162.72;;;19.55;64.57
78407;BME280;67692;51.074;-1.790;2023-07-13T10:33:26;101158.56;;;19.53;64.67
78407;BME280;67692;51.074;-1.790;2023-07-13T10:36:01;101168.09;;;19.54;64.56
78407;BME280;67692;51.074;-1.790;2023-07-13T10:38:30;101162.41;;;19.58;65.29
78407;BME280;67692;51.074;-1.790;2023-07-13T10:41:02;101164.06;;;19.59;64.25
78407;BME280;67692;51.074;-1.790;2023-07-13T10:43:34;101173.50;;;19.70;64.48
78407;BME280;67692;51.074;-1.790;2023-07-13T10:46:04;101167.97;;;19.81;62.13
78407;BME280;67692;51.074;-1.790;2023-07-13T10:48:32;101168.38;;;19.95;61.76
78407;BME280;67692;51.074;-1.790;2023-07-13T10:51:05;101170.34;;;19.92;62.81
78407;BME280;67692;51.074;-1.790;2023-07-13T10:53:34;101169.22;;;19.95;63.18
78407;BME280;67692;51.074;-1.790;2023-07-13T10:56:03;101164.19;;;20.02;62.79
78407;BME280;67692;51.074;-1.790;2023-07-13T10:58:35;101170.00;;;20.13;63.74
78407;BME280;67692;51.074;-1.790;2023-07-13T11:01:12;101161.63;;;20.18;63.58
78407;BME280;67692;51.074;-1.790;2023-07-13T11:03:48;101167.78;;;20.27;62.66
78407;BME280;67692;51.074;-1.790;2023-07-13T11:06:33;101165.28;;;20.25;62.48
78407;BME280;67692;51.074;-1.790;2023-07-13T11:09:18;101157.53;;;20.24;63.24
78407;BME280;67692;51.074;-1.790;2023-07-13T11:11:45;101161.81;;;20.25;61.04
78407;BME280;67692;51.074;-1.790;2023-07-13T11:14:30;101167.28;;;20.31;60.25
78407;BME280;67692;51.074;-1.790;2023-07-13T11:16:57;101167.28;;;20.31;59.19
78407;BME280;67692;51.074;-1.790;2023-07-13T11:19:42;101167.31;;;20.39;60.11
78407;BME280;67692;51.074;-1.790;2023-07-13T11:22:16;101166.72;;;20.45;60.10
78407;BME280;67692;51.074;-1.790;2023-07-13T11:24:49;101171.81;;;20.47;59.70
78407;BME280;67692;51.074;-1.790;2023-07-13T11:27:25;101179.38;;;20.42;58.92
78407;BME280;67692;51.074;-1.790;2023-07-13T11:30:07;101175.19;;;20.31;59.24
78407;BME280;67692;51.074;-1.790;2023-07-13T11:32:36;101177.91;;;20.21;60.66
78407;BME280;67692;51.074;-1.790;2023-07-13T11:35:03;101193.75;;;20.04;64.93
78407;BME280;67692;51.074;-1.790;2023-07-13T11:37:32;101191.78;;;19.80;68.92
78407;BME280;67692;51.074;-1.790;2023-07-13T11:39:58;101197.28;;;19.51;72.55
78407;BME280;67692;51.074;-1.790;2023-07-13T11:42:25;101187.22;;;19.28;74.57
78407;BME280;67692;51.074;-1.790;2023-07-13T11:44:52;101190.13;;;19.08;78.92
78407;BME280;67692;51.074;-1.790;2023-07-13T11:47:22;101186.38;;;18.92;81.13
78407;BME280;67692;51.074;-1.790;2023-07-13T11:49:54;101188.09;;;18.84;83.53
78407;BME280;67692;51.074;-1.790;2023-07-13T11:52:23;101186.88;;;18.78;82.05
78407;BME280;67692;51.074;-1.790;2023-07-13T11:54:56;101182.75;;;18.76;83.01
78407;BME280;67692;51.074;-1.790;2023-07-13T11:57:26;101182.38;;;18.70;82.41
78407;BME280;67692;51.074;-1.790;2023-07-13T11:59:55;101172.44;;;18.64;80.37
78407;BME280;67692;51.074;-1.790;2023-07-13T12:02:28;101167.19;;;18.64;80.40
78407;BME280;67692;51.074;-1.790;2023-07-13T12:04:55;101163.84;;;18.72;81.87
78407;BME280;67692;51.074;-1.790;2023-07-13T12:07:22;101173.47;;;18.81;81.26
78407;BME280;67692;51.074;-1.790;2023-07-13T12:09:49;101169.78;;;18.92;79.63
78407;BME280;67692;51.074;-1.790;2023-07-13T12:12:20;101170.41;;;19.03;80.76
78407;BME280;67692;51.074;-1.790;2023-07-13T12:14:51;101163.88;;;19.08;78.70
78407;BME280;67692;51.074;-1.790;2023-07-13T12:17:19;101149.41;;;19.03;78.90
78407;BME280;67692;51.074;-1.790;2023-07-13T12:19:47;101155.69;;;18.93;77.64
78407;BME280;67692;51.074;-1.790;2023-07-13T12:22:16;101150.59;;;18.91;76.43
78407;BME280;67692;51.074;-1.790;2023-07-13T12:24:44;101143.41;;;18.93;77.70
78407;BME280;67692;51.074;-1.790;2023-07-13T12:27:21;101144.31;;;19.02;78.45
78407;BME280;67692;51.074;-1.790;2023-07-13T12:29:50;101139.16;;;19.10;75.77
78407;BME280;67692;51.074;-1.790;2023-07-13T12:32:19;101134.56;;;19.12;74.83
78407;BME280;67692;51.074;-1.790;2023-07-13T12:34:54;101139.81;;;19.12;73.94
78407;BME280;67692;51.074;-1.790;2023-07-13T12:37:22;101137.19;;;19.12;74.43
78407;BME280;67692;51.074;-1.790;2023-07-13T12:39:49;101144.91;;;19.14;73.54
78407;BME280;67692;51.074;-1.790;2023-07-13T12:42:23;101136.81;;;19.07;72.30
78407;BME280;67692;51.074;-1.790;2023-07-13T12:44:54;101140.19;;;18.99;72.33
78407;BME280;67692;51.074;-1.790;2023-07-13T12:47:24;101138.16;;;18.93;70.40